Smyrna, North Carolina
Current Conditions -  °F | °C
As of 12:58 PM on Wednesday 28 Jan 2015 (Local Time) from KMRH Reporting Station
Clear Clear  
Wind Chill: 35°   Ceiling: Unl
Heat Index: 42°   Visibility: 10mi
Dew Point: 21°   Wind: 14mph
Humidity: 43%   Direction: 350°N
Pressure: 30.18"   Gusts: NA
Location:  34.76°N, 76.53°W
Report Text: KMRH 281758Z AUTO 35012KT 10SM CLR 06/M06 A3018 RMK AO2 SLP219 T00561061 10056 21006 58002 TSNO
Loading
Personal Weather Stations






























Interactive Weather Map New forecast layout! Learn more

10-Day Weather Forecast

Advertisements
Track Severe Weather on mobile